createdAt,value
2023-04-19T00:00:32.936Z,7.53
2023-04-19T00:03:36.380Z,7.62
2023-04-19T00:06:41.229Z,7.67
2023-04-19T00:09:44.206Z,7.77
2023-04-19T00:12:48.565Z,7.57
2023-04-19T00:15:51.384Z,7.62
2023-04-19T00:18:54.428Z,7.57
2023-04-19T00:21:57.397Z,7.68
2023-04-19T00:25:00.319Z,7.83
2023-04-19T00:28:05.300Z,7.68
2023-04-19T00:31:08.194Z,7.73
2023-04-19T00:34:11.333Z,7.89
2023-04-19T00:37:14.285Z,7.59
2023-04-19T00:40:17.181Z,7.66
2023-04-19T00:43:21.960Z,7.62
2023-04-19T00:46:25.661Z,7.57
2023-04-19T00:49:29.129Z,7.61
2023-04-19T00:52:33.900Z,7.40
2023-04-19T00:55:38.656Z,7.40
2023-04-19T00:58:43.030Z,7.36
2023-04-19T01:01:46.049Z,7.42
2023-04-19T01:04:49.249Z,7.40
2023-04-19T01:07:52.229Z,7.32
2023-04-19T01:10:55.079Z,7.29
2023-04-19T01:13:59.910Z,7.32
2023-04-19T01:17:02.763Z,7.01
2023-04-19T01:20:08.231Z,6.95
2023-04-19T01:23:12.713Z,6.88
2023-04-19T01:26:16.229Z,6.88
2023-04-19T01:29:20.961Z,6.84
2023-04-19T01:32:25.382Z,6.77
2023-04-19T01:35:28.459Z,6.77
2023-04-19T01:38:32.875Z,6.67
2023-04-19T01:41:35.771Z,6.59
2023-04-19T01:44:38.723Z,6.52
2023-04-19T01:47:41.655Z,6.62
2023-04-19T01:50:44.679Z,6.53
2023-04-19T01:53:52.568Z,6.41
2023-04-19T01:56:55.564Z,6.41
2023-04-19T01:59:58.921Z,6.32
2023-04-19T02:03:02.113Z,6.22
2023-04-19T02:06:05.421Z,6.15
2023-04-19T02:09:09.718Z,6.08
2023-04-19T02:12:12.524Z,6.21
2023-04-19T02:15:15.575Z,6.15
2023-04-19T02:18:18.407Z,6.02
2023-04-19T02:21:21.510Z,5.93
2023-04-19T02:24:26.000Z,6.01
2023-04-19T02:27:28.915Z,5.88
2023-04-19T02:30:31.922Z,5.93
2023-04-19T02:33:34.880Z,5.92
2023-04-19T02:36:37.959Z,5.89
2023-04-19T02:39:42.815Z,5.81
2023-04-19T02:42:45.791Z,5.79
2023-04-19T02:45:48.874Z,5.81
2023-04-19T02:48:51.765Z,5.76
2023-04-19T02:51:55.905Z,5.69
2023-04-19T02:55:00.201Z,5.59
2023-04-19T02:58:03.375Z,5.48
2023-04-19T03:01:07.304Z,5.63
2023-04-19T03:04:10.351Z,5.48
2023-04-19T03:07:13.542Z,5.49
2023-04-19T03:10:18.417Z,5.47
2023-04-19T03:13:21.342Z,5.45
2023-04-19T03:16:24.583Z,5.42
2023-04-19T03:19:27.490Z,5.41
2023-04-19T03:22:30.852Z,5.38
2023-04-19T03:25:35.320Z,5.45
2023-04-19T03:28:38.271Z,5.19
2023-04-19T03:31:41.202Z,5.13
2023-04-19T03:34:46.916Z,5.16
2023-04-19T03:37:49.947Z,5.10
2023-04-19T03:40:56.222Z,5.06
2023-04-19T03:43:59.223Z,5.13
2023-04-19T03:47:02.103Z,5.06
2023-04-19T03:50:05.488Z,5.08
2023-04-19T03:53:08.596Z,5.04
2023-04-19T03:56:12.972Z,4.96
2023-04-19T03:59:15.772Z,4.91
2023-04-19T04:02:18.943Z,4.81
2023-04-19T04:05:22.033Z,4.75
2023-04-19T04:08:25.143Z,4.77
2023-04-19T04:11:29.546Z,4.86
2023-04-19T04:14:32.356Z,4.86
2023-04-19T04:17:35.455Z,4.88
2023-04-19T04:20:38.450Z,4.80
2023-04-19T04:23:41.936Z,4.71
2023-04-19T04:26:46.201Z,4.76
2023-04-19T04:29:49.489Z,4.83
2023-04-19T04:32:52.524Z,4.91
2023-04-19T04:35:56.345Z,5.00
2023-04-19T04:39:01.999Z,4.96
2023-04-19T04:42:07.896Z,5.13
2023-04-19T04:45:11.768Z,5.21
2023-04-19T04:48:14.649Z,5.63
2023-04-19T04:51:17.309Z,5.93
2023-04-19T04:54:20.086Z,6.09
2023-04-19T04:57:24.110Z,6.36
2023-04-19T05:00:27.373Z,6.65
2023-04-19T05:03:30.624Z,6.92
2023-04-19T05:06:33.297Z,7.08
2023-04-19T05:09:36.013Z,7.35
2023-04-19T05:15:42.977Z,7.37
2023-04-19T05:18:45.903Z,7.49
2023-04-19T05:21:49.288Z,7.53
2023-04-19T05:24:52.229Z,7.43
2023-04-19T05:27:56.430Z,7.25
2023-04-19T05:31:02.334Z,7.24
2023-04-19T05:34:05.401Z,7.10
2023-04-19T05:37:08.252Z,7.14
2023-04-19T05:40:11.780Z,6.89
2023-04-19T05:43:16.196Z,6.83
2023-04-19T05:46:19.081Z,6.86
2023-04-19T05:49:21.952Z,6.90
2023-04-19T05:52:24.920Z,7.03
2023-04-19T05:55:27.989Z,7.23
2023-04-19T06:05:02.460Z,7.51
2023-04-19T06:08:09.451Z,7.80
2023-04-19T06:11:24.588Z,7.73
2023-04-19T06:14:31.990Z,7.81
2023-04-19T06:17:34.909Z,7.92
2023-04-19T06:20:39.797Z,8.21
2023-04-19T06:23:42.734Z,8.60
2023-04-19T06:26:47.727Z,8.83
2023-04-19T06:29:51.344Z,9.19
2023-04-19T06:32:54.482Z,9.52
2023-04-19T06:35:58.973Z,9.73
2023-04-19T06:39:01.914Z,10.23
2023-04-19T06:42:05.642Z,10.70
2023-04-19T06:45:09.523Z,10.80
2023-04-19T06:48:12.593Z,11.31
2023-04-19T06:51:16.910Z,11.79
2023-04-19T06:54:19.874Z,11.83
2023-04-19T06:57:22.934Z,12.32
2023-04-19T07:00:26.382Z,12.44
2023-04-19T07:03:29.902Z,12.45
2023-04-19T07:06:34.405Z,12.30
2023-04-19T07:09:37.405Z,12.55
2023-04-19T07:12:40.328Z,12.76
2023-04-19T07:15:43.232Z,13.40
2023-04-19T07:18:46.085Z,13.35
2023-04-19T07:21:50.413Z,13.18
2023-04-19T07:24:53.930Z,13.39
2023-04-19T07:27:57.577Z,13.38
2023-04-19T07:31:00.947Z,13.99
2023-04-19T07:34:03.834Z,14.20
2023-04-19T07:37:08.681Z,14.55
2023-04-19T07:40:12.658Z,14.39
2023-04-19T07:43:15.937Z,14.63
2023-04-19T07:46:18.858Z,15.09
2023-04-19T07:49:22.175Z,14.91
2023-04-19T07:52:26.619Z,15.41
2023-04-19T07:55:29.572Z,15.47
2023-04-19T07:58:32.535Z,15.38
2023-04-19T08:01:35.751Z,15.75
2023-04-19T08:04:39.936Z,15.88
2023-04-19T08:07:44.655Z,16.12
2023-04-19T08:10:47.531Z,16.31
2023-04-19T08:14:02.640Z,16.39
2023-04-19T08:20:16.171Z,16.36
2023-04-19T08:23:26.065Z,16.57
2023-04-19T08:26:32.458Z,16.02
2023-04-19T08:29:35.388Z,16.11
2023-04-19T08:32:38.480Z,16.20
2023-04-19T08:35:42.096Z,16.29
2023-04-19T08:38:51.829Z,15.88
2023-04-19T08:42:12.618Z,15.82
2023-04-19T08:45:29.639Z,15.89
2023-04-19T08:48:35.951Z,16.25
2023-04-19T08:51:40.083Z,15.91
2023-04-19T08:54:45.259Z,16.72
2023-04-19T08:57:48.760Z,17.13
2023-04-19T09:00:51.957Z,16.95
2023-04-19T09:07:00.923Z,15.63
2023-04-19T09:10:10.675Z,15.27
2023-04-19T09:13:13.950Z,14.66
2023-04-19T09:16:26.419Z,14.26
2023-04-19T09:19:46.966Z,14.31
2023-04-19T09:23:05.024Z,15.59
2023-04-19T09:26:22.782Z,16.79
2023-04-19T09:29:27.072Z,16.91
2023-04-19T09:32:45.468Z,17.25
2023-04-19T09:35:49.636Z,17.21
2023-04-19T09:38:52.835Z,15.97
2023-04-19T09:41:58.376Z,14.95
2023-04-19T09:45:28.370Z,14.93
2023-04-19T09:48:24.473Z,15.44
2023-04-19T09:51:41.665Z,16.30
2023-04-19T09:54:46.657Z,17.23
2023-04-19T09:57:51.277Z,17.94
2023-04-19T10:01:10.636Z,18.27
2023-04-19T10:04:37.701Z,17.86
2023-04-19T10:07:45.183Z,18.49
2023-04-19T10:10:49.246Z,19.13
2023-04-19T10:13:57.316Z,19.09
2023-04-19T10:17:00.840Z,18.61
2023-04-19T10:20:09.131Z,18.91
2023-04-19T10:23:12.390Z,18.74
2023-04-19T10:26:15.287Z,18.46
2023-04-19T10:29:58.739Z,18.57
2023-04-19T10:33:03.906Z,18.41
2023-04-19T10:36:11.113Z,18.60
2023-04-19T10:39:41.555Z,18.42
2023-04-19T10:43:18.853Z,18.23
2023-04-19T10:46:41.467Z,18.99
2023-04-19T10:49:47.600Z,18.71
2023-04-19T10:52:50.569Z,19.41
2023-04-19T10:55:53.607Z,18.35
2023-04-19T10:59:24.708Z,17.29
2023-04-19T11:02:33.836Z,17.19
2023-04-19T11:06:16.862Z,16.57
2023-04-19T11:09:23.544Z,16.26
2023-04-19T11:12:26.693Z,16.19
2023-04-19T11:15:29.509Z,16.64
2023-04-19T11:18:33.926Z,16.33
2023-04-19T11:21:41.239Z,16.94
2023-04-19T11:24:48.371Z,16.97
2023-04-19T11:27:53.034Z,16.98
2023-04-19T11:30:56.454Z,17.49
2023-04-19T11:34:01.468Z,18.06
2023-04-19T11:37:04.344Z,17.71
2023-04-19T11:40:08.978Z,18.41
2023-04-19T11:43:11.872Z,18.91
2023-04-19T11:46:15.294Z,18.98
2023-04-19T11:49:29.120Z,18.90
2023-04-19T11:52:36.588Z,18.21
2023-04-19T11:55:39.727Z,17.84
2023-04-19T11:58:45.120Z,16.57
2023-04-19T12:01:48.180Z,16.21
2023-04-19T12:04:53.305Z,16.25
2023-04-19T12:08:04.168Z,15.87
2023-04-19T12:11:10.077Z,15.69
2023-04-19T12:14:14.344Z,16.06
2023-04-19T12:17:17.597Z,16.04
2023-04-19T12:20:31.723Z,15.75
2023-04-19T12:23:34.691Z,15.58
2023-04-19T12:26:38.017Z,15.49
2023-04-19T12:29:40.859Z,15.39
2023-04-19T12:32:43.847Z,15.28
2023-04-19T12:35:48.197Z,15.41
2023-04-19T12:38:51.788Z,14.98
2023-04-19T12:41:54.802Z,14.76
2023-04-19T12:44:57.918Z,14.90
2023-04-19T12:48:00.761Z,14.62
2023-04-19T12:51:05.871Z,14.62
2023-04-19T12:54:08.751Z,15.31
2023-04-19T12:57:11.726Z,15.94
2023-04-19T13:00:15.703Z,16.64
2023-04-19T13:03:18.741Z,16.82
2023-04-19T13:06:23.414Z,17.02
2023-04-19T13:09:28.005Z,16.98
2023-04-19T13:12:31.052Z,16.79
2023-04-19T13:15:33.972Z,16.78
2023-04-19T13:18:36.906Z,16.70
2023-04-19T13:21:41.102Z,16.64
2023-04-19T13:24:44.081Z,16.75
2023-04-19T13:27:47.634Z,16.42
2023-04-19T13:30:50.471Z,16.24
2023-04-19T13:33:53.753Z,16.47
2023-04-19T13:36:58.435Z,16.36
2023-04-19T13:40:14.693Z,16.17
2023-04-19T13:43:20.831Z,15.68
2023-04-19T13:46:23.937Z,15.47
2023-04-19T13:49:26.929Z,15.23
2023-04-19T13:52:31.237Z,14.88
2023-04-19T13:55:34.406Z,14.69
2023-04-19T13:58:37.296Z,14.79
2023-04-19T14:01:40.412Z,14.77
2023-04-19T14:04:43.593Z,14.53
2023-04-19T14:07:48.001Z,14.51
2023-04-19T14:10:51.325Z,14.09
2023-04-19T14:13:54.143Z,14.18
2023-04-19T14:16:57.102Z,14.28
2023-04-19T14:19:59.939Z,14.24
2023-04-19T14:23:04.827Z,14.14
2023-04-19T14:26:07.716Z,14.40
2023-04-19T14:29:10.831Z,14.25
2023-04-19T14:32:25.003Z,14.26
2023-04-19T14:35:29.335Z,14.29
2023-04-19T14:38:34.041Z,14.11
2023-04-19T14:41:36.930Z,14.04
2023-04-19T14:44:39.884Z,13.99
2023-04-19T14:47:42.748Z,13.99
2023-04-19T14:50:45.607Z,13.76
2023-04-19T14:53:49.913Z,13.30
2023-04-19T14:56:53.670Z,13.13
2023-04-19T14:59:58.512Z,13.15
2023-04-19T15:03:02.788Z,13.01
2023-04-19T15:06:06.330Z,12.79
2023-04-19T15:09:10.815Z,12.07
2023-04-19T15:12:13.683Z,11.61
2023-04-19T15:15:16.684Z,11.29
2023-04-19T15:18:19.580Z,10.74
2023-04-19T15:21:24.498Z,10.13
2023-04-19T15:24:29.347Z,9.61
2023-04-19T15:27:32.449Z,9.19
2023-04-19T15:30:35.435Z,9.03
2023-04-19T15:33:38.498Z,9.15
2023-04-19T15:36:41.762Z,8.76
2023-04-19T15:39:46.043Z,8.48
2023-04-19T15:42:48.899Z,8.33
2023-04-19T15:45:51.681Z,8.44
2023-04-19T15:48:54.731Z,8.63
2023-04-19T15:51:57.786Z,8.54
2023-04-19T15:55:02.036Z,8.70
2023-04-19T15:58:06.484Z,8.62
2023-04-19T16:01:12.287Z,8.64
2023-04-19T16:04:15.440Z,8.69
2023-04-19T16:07:18.325Z,8.35
2023-04-19T16:10:22.844Z,8.52
2023-04-19T16:13:25.704Z,8.55
2023-04-19T16:16:31.344Z,8.65
2023-04-19T16:19:34.350Z,8.57
2023-04-19T16:22:37.177Z,8.64
2023-04-19T16:25:42.414Z,8.56
2023-04-19T16:28:48.125Z,8.78
2023-04-19T16:31:52.693Z,8.54
2023-04-19T16:34:55.686Z,8.58
2023-04-19T16:38:03.131Z,8.66
2023-04-19T16:41:07.640Z,8.55
2023-04-19T16:44:10.679Z,8.51
2023-04-19T16:47:13.497Z,8.46
2023-04-19T16:50:16.185Z,8.44
2023-04-19T16:53:19.096Z,8.46
2023-04-19T16:56:24.209Z,8.23
2023-04-19T16:59:27.053Z,8.38
2023-04-19T17:02:29.941Z,8.46
2023-04-19T17:05:32.949Z,8.17
2023-04-19T17:08:36.383Z,8.04
2023-04-19T17:11:40.549Z,8.10
2023-04-19T17:14:43.435Z,7.99
2023-04-19T17:17:46.142Z,7.76
2023-04-19T17:20:49.059Z,7.75
2023-04-19T17:23:51.817Z,7.76
2023-04-19T17:26:56.837Z,7.73
2023-04-19T17:29:59.538Z,7.50
2023-04-19T17:33:02.475Z,7.64
2023-04-19T17:36:06.000Z,7.55
2023-04-19T17:39:08.853Z,7.34
2023-04-19T17:42:12.902Z,7.48
2023-04-19T17:45:16.612Z,7.63
2023-04-19T17:48:19.450Z,7.60
2023-04-19T17:51:22.361Z,7.61
2023-04-19T17:54:25.278Z,7.66
2023-04-19T17:57:29.857Z,7.64
2023-04-19T18:00:32.744Z,7.53
2023-04-19T18:03:35.878Z,7.53
2023-04-19T18:06:39.065Z,7.46
2023-04-19T18:09:41.878Z,7.62
2023-04-19T18:12:47.464Z,7.50
2023-04-19T18:15:50.406Z,7.36
2023-04-19T18:18:53.225Z,7.45
2023-04-19T18:21:56.400Z,7.51
2023-04-19T18:24:59.288Z,7.61
2023-04-19T18:28:03.664Z,7.52
2023-04-19T18:31:06.846Z,7.59
2023-04-19T18:34:11.914Z,7.44
2023-04-19T18:37:16.865Z,7.38
2023-04-19T18:40:19.927Z,7.48
2023-04-19T18:43:25.886Z,7.56
2023-04-19T18:46:29.571Z,7.51
2023-04-19T18:49:32.866Z,7.49
2023-04-19T18:52:36.838Z,7.64
2023-04-19T18:55:40.873Z,7.45
2023-04-19T18:58:45.061Z,7.45
2023-04-19T19:01:48.524Z,7.58
2023-04-19T19:04:57.846Z,7.58
2023-04-19T19:08:04.711Z,7.56
2023-04-19T19:11:29.224Z,7.68
2023-04-19T19:14:35.666Z,7.68
2023-04-19T19:17:38.699Z,7.50
2023-04-19T19:20:41.508Z,7.50
2023-04-19T19:23:44.370Z,7.52
2023-04-19T19:26:47.113Z,7.48
2023-04-19T19:29:51.403Z,7.63
2023-04-19T19:32:54.224Z,7.53
2023-04-19T19:35:57.163Z,7.62
2023-04-19T19:38:59.872Z,7.54
2023-04-19T19:42:06.375Z,7.62
2023-04-19T19:45:11.753Z,7.42
2023-04-19T19:48:14.566Z,7.36
2023-04-19T19:51:47.614Z,7.47
2023-04-19T19:54:40.314Z,7.53
2023-04-19T20:00:52.672Z,7.36
2023-04-19T20:03:56.436Z,7.56
2023-04-19T20:10:06.270Z,7.66
2023-04-19T20:13:09.282Z,7.40
2023-04-19T20:16:14.780Z,7.55
2023-04-19T20:19:18.328Z,7.52
2023-04-19T20:22:21.482Z,7.39
2023-04-19T20:25:24.247Z,7.42
2023-04-19T20:28:27.382Z,7.36
2023-04-19T20:31:31.757Z,7.29
2023-04-19T20:34:34.475Z,7.30
2023-04-19T20:37:37.726Z,7.54
2023-04-19T20:40:40.567Z,7.46
2023-04-19T20:43:44.833Z,7.28
2023-04-19T20:46:50.341Z,7.32
2023-04-19T20:49:53.264Z,7.32
2023-04-19T20:52:56.586Z,7.34
2023-04-19T20:56:00.379Z,7.31
2023-04-19T20:59:03.067Z,7.35
2023-04-19T21:02:07.552Z,7.32
2023-04-19T21:05:10.846Z,7.24
2023-04-19T21:08:15.131Z,7.39
2023-04-19T21:11:17.911Z,7.38
2023-04-19T21:14:20.814Z,7.38
2023-04-19T21:17:25.147Z,7.35
2023-04-19T21:20:28.141Z,7.33
2023-04-19T21:23:31.003Z,7.41
2023-04-19T21:26:33.959Z,7.38
2023-04-19T21:29:36.838Z,7.35
2023-04-19T21:32:41.172Z,7.44
2023-04-19T21:35:44.080Z,7.44
2023-04-19T21:38:46.961Z,7.40
2023-04-19T21:41:49.648Z,7.25
2023-04-19T21:44:52.469Z,7.18
2023-04-19T21:47:56.567Z,7.31
2023-04-19T21:50:59.488Z,7.10
2023-04-19T21:54:02.221Z,7.25
2023-04-19T21:57:05.552Z,7.18
2023-04-19T22:00:10.260Z,7.19
2023-04-19T22:03:15.709Z,7.42
2023-04-19T22:06:19.385Z,7.24
2023-04-19T22:09:22.202Z,7.24
2023-04-19T22:12:25.756Z,7.25
2023-04-19T22:15:28.480Z,7.28
2023-04-19T22:18:34.315Z,7.25
2023-04-19T22:21:37.236Z,7.12
2023-04-19T22:24:53.860Z,7.09
2023-04-19T22:28:00.009Z,7.13
2023-04-19T22:31:03.131Z,7.12
2023-04-19T22:34:07.480Z,7.16
2023-04-19T22:37:10.500Z,7.25
2023-04-19T22:40:13.985Z,7.17
2023-04-19T22:43:17.518Z,7.19
2023-04-19T22:46:20.371Z,7.19
2023-04-19T22:49:24.516Z,7.05
2023-04-19T22:52:27.860Z,7.22
2023-04-19T22:55:30.827Z,7.26
2023-04-19T22:58:33.714Z,7.21
2023-04-19T23:01:36.622Z,7.13
2023-04-19T23:04:41.127Z,7.18
2023-04-19T23:07:45.123Z,7.16
2023-04-19T23:10:51.024Z,7.19
2023-04-19T23:13:54.067Z,7.20
2023-04-19T23:16:57.224Z,7.19
2023-04-19T23:20:01.277Z,7.17
2023-04-19T23:23:05.239Z,7.23
2023-04-19T23:26:08.093Z,7.20
2023-04-19T23:29:10.828Z,7.21
2023-04-19T23:32:13.694Z,7.25
2023-04-19T23:35:17.808Z,7.27
2023-04-19T23:38:20.972Z,7.32
2023-04-19T23:41:24.045Z,7.32
2023-04-19T23:44:27.552Z,7.38
2023-04-19T23:47:30.458Z,7.26
2023-04-19T23:50:34.554Z,7.31
2023-04-19T23:53:38.730Z,7.35
2023-04-19T23:56:41.505Z,7.23
2023-04-19T23:59:44.352Z,7.17
